Portada
METAR-TAF:

METAR-TAF

Aeroports :

Gwalior, Índia

latitud: 26-17-36N, longitud: 78-13-40E, altitud: 188 m

METAR: manca

Hora: 11:34 (06:04 UTC)

Pronòstic

L'informe es va fer fa 2 hores i 34 minuts, a les 03:30 UTC
Pronòstic vàlid del 27 a les 06 UTC al 27 a les 18 UTC
Vent 7 kt del Oest/Sud-Oest amb ràfegues de 22 kt
Visibilitat: 6000 m
Núvols disperses a una alçada de 3000 ft
Núvols disperses a una alçada de 3000 ft
Núvols disperses a una alçada de 10000 ft
Temporalment
l' 27 a les 10 UTC al 27 a les 14 UTC
Vent 10 kt del Sud-Oest
Visibilitat: 6000 m
Temporalment
l' 27 a les 08 UTC al 27 a les 12 UTC
Vent 15 kt del Oest amb ràfegues de 25 kt
Visibilitat: 6000 m
Escasses núvols a una alçada de 4000 ft

TAF: VIGR 270330Z 2706/2718 27012G22KT 6000 SCT030 BECMG2712/2715 25007KT 6000 SCT030 SCT100 TEMPO 2710/2714 FEW040TCU/CBVIJR 270330Z 2706/2718 23010KT 6000 TEMPO 2708/2712 28015G25KT 6000 FEW040

Observacions i pronòstics meteorològics de més de 4000 aeroports (METAR i TAF).

Les estacions disponibles són els punts grocs i vermells al mapa.

Posi el ratolí al punt desitjat per veure el nom de l'estació.

Feu clic per veure les observacions i els pronòstics meteorològics.

Per canviar el mapa: feu clic els botons verds amb una creu de color negre per apropar; al botó verd amb un guió per allunyar la imatge; o en les fletxes verdes per a mapes adjacents.


METAR-TAF: